KLM809 EHAM-WMKK
Flight info
| Callsign | KLM809 |
|---|---|
| Flight time | N/A |
| Altitude | 31000 |
| Route | ARNEM3N ARNEM L620 HMM DCT NOMKA DCT OMELO DCT PEPIK DCT BUDOP DCT LUGEB/N0489F330 DCT UDROS UM859 KARDE UN644 ROLIN DCT TAGAR DCT BT DCT BARAD M747 SUBUT T923 ERLEV M11 RODAR A909 NINOP/N0490F350 A909 LEMOD N644 DI A466 DPN L759 MABUR/N0494F370 L759 PUT B579 VPL Y503 RINBA Y507 KAKAK KAKAK1G |
| Aircraft | B77W/H-SDE1E2E3FGHIJ2J3J4J5M1RWXY/LB1D1 |
Departure
| Time | 2026-05-07 19:27 |
|---|---|
| Airport | Amsterdam Airport Schiphol (EHAM) |
Arrival
| Time | N/A |
|---|---|
| Airport | Kuala Lumpur International Airport (WMKK) |
| Time | Latitude | Longitude | Altitude | Speed | Heading |
|---|---|---|---|---|---|
| 2026-05-07 18:55 | 52.31357 | 4.76071 | 4 ft | 0 kts | 146° |
| 2026-05-07 19:11 | 52.31370 | 4.76057 | 4 ft | 4 kts | 147° |
| 2026-05-07 19:11 | 52.31393 | 4.76033 | 4 ft | 4 kts | 147° |
| 2026-05-07 19:11 | 52.31415 | 4.76009 | 4 ft | 4 kts | 144° |
| 2026-05-07 19:12 | 52.31435 | 4.75982 | 4 ft | 4 kts | 122° |
| 2026-05-07 19:12 | 52.31440 | 4.75954 | 4 ft | 4 kts | 46° |
| 2026-05-07 19:12 | 52.31419 | 4.75927 | 3 ft | 4 kts | 24° |
| 2026-05-07 19:12 | 52.31394 | 4.75918 | 3 ft | 4 kts | 353° |
| 2026-05-07 19:13 | 52.31368 | 4.75927 | 3 ft | 4 kts | 352° |
| 2026-05-07 19:13 | 52.31361 | 4.75928 | 3 ft | 0 kts | 357° |
| 2026-05-07 19:15 | 52.31363 | 4.75928 | 3 ft | 2 kts | 357° |
| 2026-05-07 19:16 | 52.31384 | 4.75926 | 3 ft | 2 kts | 357° |
| 2026-05-07 19:16 | 52.31396 | 4.75926 | 3 ft | 2 kts | 357° |
| 2026-05-07 19:16 | 52.31441 | 4.75922 | 4 ft | 13 kts | 357° |
| 2026-05-07 19:16 | 52.31508 | 4.75893 | 4 ft | 9 kts | 319° |
| 2026-05-07 19:17 | 52.31514 | 4.75804 | 4 ft | 3 kts | 261° |
| 2026-05-07 19:17 | 52.31516 | 4.75767 | 4 ft | 3 kts | 276° |
| 2026-05-07 19:17 | 52.31518 | 4.75722 | 4 ft | 7 kts | 271° |
| 2026-05-07 19:17 | 52.31516 | 4.75578 | 4 ft | 14 kts | 268° |
| 2026-05-07 19:18 | 52.31510 | 4.75416 | 4 ft | 14 kts | 265° |
| 2026-05-07 19:18 | 52.31504 | 4.75265 | 3 ft | 13 kts | 267° |
| 2026-05-07 19:18 | 52.31500 | 4.75118 | 3 ft | 13 kts | 267° |
| 2026-05-07 19:18 | 52.31495 | 4.74971 | 4 ft | 13 kts | 267° |
| 2026-05-07 19:19 | 52.31491 | 4.74825 | 4 ft | 13 kts | 267° |
| 2026-05-07 19:19 | 52.31486 | 4.74678 | 4 ft | 13 kts | 266° |
| 2026-05-07 19:19 | 52.31481 | 4.74532 | 4 ft | 13 kts | 266° |
| 2026-05-07 19:19 | 52.31476 | 4.74385 | 4 ft | 13 kts | 266° |
| 2026-05-07 19:20 | 52.31473 | 4.74288 | 4 ft | 13 kts | 265° |
| 2026-05-07 19:20 | 52.31429 | 4.74168 | 4 ft | 13 kts | 212° |
| 2026-05-07 19:20 | 52.31342 | 4.74134 | 4 ft | 13 kts | 185° |
| 2026-05-07 19:20 | 52.31250 | 4.74126 | 4 ft | 15 kts | 182° |
| 2026-05-07 19:21 | 52.31132 | 4.74118 | 4 ft | 19 kts | 182° |
| 2026-05-07 19:21 | 52.30993 | 4.74104 | 4 ft | 21 kts | 184° |
| 2026-05-07 19:21 | 52.30835 | 4.74087 | 4 ft | 24 kts | 182° |
| 2026-05-07 19:21 | 52.30667 | 4.74075 | 4 ft | 24 kts | 182° |
| 2026-05-07 19:22 | 52.30499 | 4.74057 | 4 ft | 24 kts | 183° |
| 2026-05-07 19:22 | 52.30374 | 4.74039 | 4 ft | 14 kts | 197° |
| 2026-05-07 19:22 | 52.30322 | 4.74004 | 4 ft | 0 kts | 205° |
| 2026-05-07 19:22 | 52.30309 | 4.73994 | 4 ft | 8 kts | 205° |
| 2026-05-07 19:23 | 52.30233 | 4.73931 | 3 ft | 0 kts | 213° |
| 2026-05-07 19:24 | 52.30216 | 4.73910 | 3 ft | 6 kts | 220° |
| 2026-05-07 19:24 | 52.30191 | 4.73849 | 3 ft | 8 kts | 252° |
| 2026-05-07 19:24 | 52.30217 | 4.73748 | 3 ft | 11 kts | 338° |
| 2026-05-07 19:24 | 52.30252 | 4.73744 | 1 ft | 0 kts | 1° |
| 2026-05-07 19:25 | 52.30259 | 4.73744 | 1 ft | 6 kts | 1° |
| 2026-05-07 19:25 | 52.30388 | 4.73748 | 1 ft | 31 kts | 2° |
| 2026-05-07 19:26 | 52.30720 | 4.73785 | 4 ft | 77 kts | 4° |
| 2026-05-07 19:26 | 52.31530 | 4.73856 | 2 ft | 154 kts | 3° |
| 2026-05-07 19:26 | 52.32823 | 4.73990 | 32 ft | 211 kts | 3° |
| 2026-05-07 19:26 | 52.34347 | 4.74082 | 540 ft | 227 kts | 2° |
| 2026-05-07 19:27 | 52.35948 | 4.74192 | 1376 ft | 232 kts | 4° |
| 2026-05-07 19:27 | 52.37520 | 4.74705 | 2055 ft | 234 kts | 23° |
| 2026-05-07 19:27 | 52.38906 | 4.76133 | 2292 ft | 242 kts | 52° |
| 2026-05-07 19:27 | 52.39734 | 4.78576 | 2510 ft | 250 kts | 63° |
| 2026-05-07 19:28 | 52.40676 | 4.81027 | 2904 ft | 257 kts | 52° |
| 2026-05-07 19:28 | 52.41807 | 4.83313 | 3450 ft | 258 kts | 55° |
| 2026-05-07 19:28 | 52.42441 | 4.86047 | 3821 ft | 263 kts | 88° |
| 2026-05-07 19:28 | 52.42369 | 4.89039 | 4285 ft | 264 kts | 91° |
| 2026-05-07 19:29 | 52.42360 | 4.92063 | 4836 ft | 267 kts | 89° |
| 2026-05-07 19:29 | 52.42383 | 4.95101 | 5411 ft | 267 kts | 89° |
| 2026-05-07 19:29 | 52.42183 | 4.98118 | 5835 ft | 270 kts | 112° |
| 2026-05-07 19:29 | 52.41059 | 5.00559 | 6216 ft | 274 kts | 144° |
| 2026-05-07 19:30 | 52.39484 | 5.02307 | 6656 ft | 276 kts | 145° |
| 2026-05-07 19:30 | 52.37899 | 5.04117 | 7151 ft | 279 kts | 144° |
| 2026-05-07 19:30 | 52.36313 | 5.05951 | 7724 ft | 280 kts | 144° |
| 2026-05-07 19:30 | 52.34719 | 5.07790 | 8235 ft | 282 kts | 144° |
| 2026-05-07 19:31 | 52.33298 | 5.09984 | 8589 ft | 284 kts | 120° |
| 2026-05-07 19:31 | 52.32528 | 5.12953 | 8923 ft | 286 kts | 109° |